Time;durP1;ratioP1;P1;durP2;ratioP2;P2;SDS_P1;SDS_P2;PMS_P1;PMS_P2;Temp;Humidity;BMP_temperature;BMP_pressure;BME280_temperature;BME280_humidity;BME280_pressure;Samples;Min_cycle;Max_cycle;Signal;HPM_P1;HPM_P2
2021/05/02 00:03:27;;;;;;;14.10;8.27;;;10.50;77.70;;;;;;10179807;27;20040;-54
2021/05/02 00:08:18;;;;;;;15.88;8.95;;;10.40;78.30;;;;;;10175877;27;20055;-59
2021/05/02 00:13:09;;;;;;;16.55;10.55;;;10.40;78.00;;;;;;10186737;27;20276;-58
2021/05/02 00:18:01;;;;;;;16.77;10.55;;;10.50;77.70;;;;;;10175891;27;20046;-53
2021/05/02 00:22:55;;;;;;;15.43;10.02;;;10.60;77.40;;;;;;10174705;27;20848;-55
2021/05/02 00:27:47;;;;;;;17.70;10.57;;;10.60;77.30;;;;;;10169728;27;20023;-53
2021/05/02 00:32:39;;;;;;;20.75;10.65;;;10.70;77.30;;;;;;10166280;27;20024;-60
2021/05/02 00:37:30;;;;;;;16.92;10.00;;;10.70;77.30;;;;;;10174443;27;20039;-57
2021/05/02 00:42:24;;;;;;;15.68;9.80;;;10.60;77.40;;;;;;10178318;27;20497;-55
2021/05/02 00:47:23;;;;;;;15.38;8.80;;;10.60;77.70;;;;;;10183330;27;20134;-56
2021/05/02 00:52:28;;;;;;;17.33;10.85;;;10.60;77.20;;;;;;10164853;27;20054;-58
2021/05/02 00:57:32;;;;;;;18.90;11.80;;;10.60;77.70;;;;;;10156112;27;20051;-55
2021/05/02 01:02:28;;;;;;;15.90;9.57;;;10.60;77.70;;;;;;10186746;27;20374;-56
2021/05/02 01:07:22;;;;;;;13.52;7.40;;;10.60;77.30;;;;;;10163314;27;20055;-54
2021/05/02 01:12:15;;;;;;;11.73;8.40;;;10.60;77.10;;;;;;10184730;27;20046;-57
2021/05/02 01:17:07;;;;;;;11.95;7.18;;;10.50;76.30;;;;;;10158052;28;20411;-57
2021/05/02 01:21:59;;;;;;;9.38;6.53;;;10.60;76.00;;;;;;10170530;28;20047;-56
2021/05/02 01:26:50;;;;;;;9.38;6.50;;;10.50;75.20;;;;;;10175188;28;20027;-56
2021/05/02 01:31:43;;;;;;;9.60;6.22;;;10.50;74.50;;;;;;10170577;28;20745;-57
2021/05/02 01:36:34;;;;;;;12.32;6.00;;;10.30;74.00;;;;;;10181205;28;20046;-60
2021/05/02 01:41:25;;;;;;;9.52;6.32;;;10.40;73.70;;;;;;10179858;28;20039;-55
2021/05/02 01:46:20;;;;;;;7.90;6.10;;;10.40;73.20;;;;;;10177179;28;20039;-58
2021/05/02 01:51:13;;;;;;;12.05;6.72;;;10.40;72.80;;;;;;10176926;28;20019;-57
2021/05/02 01:56:05;;;;;;;11.18;6.68;;;10.40;72.30;;;;;;10184714;28;20046;-54
2021/05/02 02:01:19;;;;;;;9.55;5.03;;;10.20;71.90;;;;;;10183028;28;20084;-56
2021/05/02 02:06:14;;;;;;;8.98;5.40;;;10.20;71.20;;;;;;10178300;28;20020;-60
2021/05/02 02:11:04;;;;;;;10.45;5.93;;;10.30;71.00;;;;;;10172699;28;20540;-58
2021/05/02 02:15:56;;;;;;;8.10;5.22;;;10.30;70.60;;;;;;10175497;27;20035;-59
2021/05/02 02:20:52;;;;;;;8.02;5.70;;;10.40;70.20;;;;;;10192897;27;20777;-55
2021/05/02 02:25:46;;;;;;;9.80;5.47;;;10.40;70.00;;;;;;10182134;27;20027;-57
2021/05/02 02:30:39;;;;;;;9.05;5.40;;;10.40;69.70;;;;;;10188521;27;20111;-57
2021/05/02 02:35:33;;;;;;;8.20;5.43;;;10.50;69.50;;;;;;10185869;27;20043;-56
2021/05/02 02:40:24;;;;;;;7.32;5.43;;;10.50;69.40;;;;;;10199431;27;20528;-53
2021/05/02 02:45:15;;;;;;;6.97;5.28;;;10.40;68.90;;;;;;10190268;27;20063;-54
2021/05/02 02:50:09;;;;;;;9.05;6.15;;;10.40;68.70;;;;;;10193282;27;20144;-56
2021/05/02 02:55:03;;;;;;;7.38;5.53;;;10.40;68.60;;;;;;10177377;27;20095;-58
2021/05/02 02:59:57;;;;;;;9.15;5.15;;;10.40;68.40;;;;;;10184455;27;20050;-58
2021/05/02 03:04:52;;;;;;;7.32;5.25;;;10.30;68.30;;;;;;10188482;27;20023;-54
2021/05/02 03:09:47;;;;;;;7.13;4.67;;;10.30;68.20;;;;;;10190705;27;20143;-58
2021/05/02 03:14:38;;;;;;;8.10;4.83;;;10.20;67.90;;;;;;10189203;27;20609;-58
2021/05/02 03:19:34;;;;;;;8.00;5.47;;;10.30;67.80;;;;;;10191831;27;20046;-56
2021/05/02 03:24:31;;;;;;;7.90;4.70;;;10.30;67.80;;;;;;10191713;27;20050;-56
2021/05/02 03:29:23;;;;;;;8.55;5.25;;;10.30;67.60;;;;;;10187654;27;20517;-58
2021/05/02 03:34:17;;;;;;;10.32;6.68;;;10.20;67.70;;;;;;10180733;27;20075;-61
2021/05/02 03:39:11;;;;;;;7.82;5.43;;;10.10;67.70;;;;;;10188172;27;20157;-55
2021/05/02 03:44:03;;;;;;;6.68;4.80;;;10.20;67.80;;;;;;10190294;27;20305;-58
2021/05/02 03:48:57;;;;;;;8.00;6.07;;;10.20;68.00;;;;;;10190098;27;20569;-58
2021/05/02 03:53:49;;;;;;;8.80;5.25;;;10.20;67.60;;;;;;10195761;27;20080;-55
2021/05/02 03:58:39;;;;;;;7.13;4.95;;;10.10;67.80;;;;;;10193240;27;20463;-58
2021/05/02 04:03:30;;;;;;;9.00;6.00;;;10.10;67.90;;;;;;10185280;27;20480;-58
2021/05/02 04:08:21;;;;;;;8.70;5.97;;;10.10;67.80;;;;;;10180879;27;20019;-58
2021/05/02 04:13:11;;;;;;;9.90;6.00;;;10.00;68.10;;;;;;10194401;27;20056;-57
2021/05/02 04:18:02;;;;;;;8.20;5.30;;;10.00;68.20;;;;;;10182153;27;20123;-56
2021/05/02 04:22:53;;;;;;;8.88;5.82;;;9.80;69.00;;;;;;10174004;27;20059;-56
2021/05/02 04:27:44;;;;;;;9.60;4.97;;;9.80;69.10;;;;;;10191912;27;20038;-57
2021/05/02 04:32:35;;;;;;;9.73;6.00;;;9.70;69.50;;;;;;10187030;27;20127;-56
2021/05/02 04:37:26;;;;;;;10.48;6.00;;;9.70;69.30;;;;;;10191546;27;20083;-56
2021/05/02 04:42:16;;;;;;;8.45;5.80;;;9.80;69.30;;;;;;10190422;27;20748;-57
2021/05/02 04:47:07;;;;;;;8.52;5.93;;;9.80;69.50;;;;;;10174189;27;20114;-53
2021/05/02 04:51:58;;;;;;;9.95;5.53;;;9.80;69.50;;;;;;10185091;27;20031;-55
2021/05/02 04:56:48;;;;;;;10.13;5.68;;;9.80;69.40;;;;;;10189069;27;20605;-58
2021/05/02 05:01:42;;;;;;;12.93;5.80;;;9.70;69.40;;;;;;10176140;27;20381;-56
2021/05/02 05:06:33;;;;;;;9.20;5.18;;;9.50;69.70;;;;;;10181718;27;20124;-55
2021/05/02 05:11:24;;;;;;;10.00;6.20;;;9.50;70.20;;;;;;10177432;27;20171;-55
2021/05/02 05:16:15;;;;;;;9.05;6.25;;;9.60;70.30;;;;;;10177729;27;20227;-55
2021/05/02 05:21:06;;;;;;;9.63;5.95;;;9.60;70.10;;;;;;10179084;27;20398;-60
2021/05/02 05:25:57;;;;;;;10.30;6.35;;;9.70;70.20;;;;;;10177985;28;20027;-58
2021/05/02 05:30:48;;;;;;;10.38;6.65;;;9.70;70.40;;;;;;10183059;28;20038;-59
2021/05/02 05:35:39;;;;;;;10.00;6.82;;;9.80;70.70;;;;;;10168748;28;20108;-57
2021/05/02 05:40:30;;;;;;;10.27;5.45;;;9.90;70.40;;;;;;10164255;28;20052;-58
2021/05/02 05:45:21;;;;;;;6.95;4.88;;;10.00;70.30;;;;;;10182084;28;20051;-60
2021/05/02 05:50:14;;;;;;;9.75;6.00;;;10.10;70.30;;;;;;10185621;27;20516;-58
2021/05/02 05:55:06;;;;;;;9.32;6.50;;;10.10;70.40;;;;;;10196972;27;20057;-58
2021/05/02 05:59:57;;;;;;;8.52;5.05;;;10.10;70.50;;;;;;10194789;27;20878;-56
2021/05/02 06:04:47;;;;;;;10.70;6.10;;;10.10;70.40;;;;;;10184276;27;20080;-56
2021/05/02 06:09:38;;;;;;;8.82;5.70;;;10.10;70.50;;;;;;10195889;27;20756;-58
2021/05/02 06:14:29;;;;;;;8.02;5.93;;;10.00;70.60;;;;;;10167504;27;20342;-58
2021/05/02 06:19:20;;;;;;;10.45;6.35;;;10.10;70.60;;;;;;10177010;27;20420;-58
2021/05/02 06:24:10;;;;;;;10.40;6.22;;;10.10;70.50;;;;;;10175939;27;20149;-60
2021/05/02 06:29:01;;;;;;;9.48;6.22;;;10.30;70.30;;;;;;10186790;27;20277;-59
2021/05/02 06:33:52;;;;;;;13.52;7.22;;;10.30;70.40;;;;;;10185444;27;20027;-57
2021/05/02 06:38:43;;;;;;;11.77;6.60;;;10.40;70.40;;;;;;10181360;27;20055;-57
2021/05/02 06:43:34;;;;;;;12.10;6.85;;;10.40;70.20;;;;;;10181120;27;20046;-58
2021/05/02 06:48:25;;;;;;;9.60;6.28;;;10.50;70.00;;;;;;10184289;27;20894;-58
2021/05/02 06:53:16;;;;;;;7.97;5.07;;;10.60;69.90;;;;;;10174681;27;20366;-58
2021/05/02 06:58:08;;;;;;;10.35;6.70;;;10.70;69.60;;;;;;10175400;27;20077;-55
2021/05/02 07:02:59;;;;;;;9.73;6.45;;;11.00;69.20;;;;;;10161301;27;20076;-58
2021/05/02 07:07:52;;;;;;;9.15;6.05;;;11.20;68.80;;;;;;10194674;27;20188;-58
2021/05/02 07:12:43;;;;;;;9.60;5.43;;;11.30;68.30;;;;;;10190257;27;20190;-58
2021/05/02 07:17:33;;;;;;;9.18;5.97;;;11.30;68.10;;;;;;10190052;27;20543;-55
2021/05/02 07:22:27;;;;;;;8.32;6.05;;;11.30;67.70;;;;;;10181396;27;20047;-57
2021/05/02 07:27:18;;;;;;;9.27;6.90;;;11.30;67.60;;;;;;10179374;27;20651;-57
2021/05/02 07:32:08;;;;;;;10.70;7.03;;;11.50;67.00;;;;;;10184307;27;20261;-58
2021/05/02 07:36:59;;;;;;;11.48;8.48;;;11.50;66.80;;;;;;10187127;27;20276;-58
2021/05/02 07:41:50;;;;;;;11.82;7.18;;;11.50;66.20;;;;;;10183328;27;20043;-57
2021/05/02 07:46:41;;;;;;;10.57;7.95;;;11.50;65.80;;;;;;10187869;27;20441;-56
2021/05/02 07:51:31;;;;;;;10.05;6.35;;;11.60;65.20;;;;;;10185003;27;20522;-56
2021/05/02 07:56:23;;;;;;;11.10;7.63;;;11.70;65.10;;;;;;10185286;27;20035;-56
2021/05/02 08:01:13;;;;;;;9.65;7.30;;;12.00;64.00;;;;;;10171612;27;20066;-60
2021/05/02 08:06:04;;;;;;;11.80;8.00;;;12.10;63.80;;;;;;10183627;27;20570;-59
2021/05/02 08:10:55;;;;;;;12.45;8.57;;;12.20;63.20;;;;;;10163647;27;20030;-54
2021/05/02 08:15:46;;;;;;;10.25;7.45;;;12.00;62.50;;;;;;10160499;27;20035;-56
2021/05/02 08:20:37;;;;;;;12.60;8.25;;;12.00;62.10;;;;;;10175357;27;20089;-56
2021/05/02 08:25:28;;;;;;;12.32;7.93;;;12.00;61.20;;;;;;10187736;27;20043;-57
2021/05/02 08:30:19;;;;;;;13.90;8.73;;;12.10;60.70;;;;;;10182525;27;20019;-58
2021/05/02 08:35:11;;;;;;;9.98;7.60;;;12.10;60.40;;;;;;10183327;27;20488;-55
2021/05/02 08:40:04;;;;;;;11.40;7.60;;;12.30;59.60;;;;;;10170327;27;20062;-54
2021/05/02 08:44:55;;;;;;;11.02;7.55;;;12.40;58.90;;;;;;10187186;27;21843;-56
2021/05/02 08:49:46;;;;;;;11.40;8.32;;;12.60;58.60;;;;;;10183483;27;20100;-56
2021/05/02 08:54:37;;;;;;;12.00;7.70;;;12.80;58.10;;;;;;10173505;27;20471;-55
2021/05/02 08:59:27;;;;;;;7.68;6.55;;;12.80;58.00;;;;;;10187904;27;20585;-59
2021/05/02 09:04:18;;;;;;;10.65;7.72;;;13.20;57.40;;;;;;10178026;27;20027;-55
2021/05/02 09:09:11;;;;;;;10.10;7.72;;;13.30;56.50;;;;;;10177822;27;20027;-59
2021/05/02 09:14:07;;;;;;;10.50;7.85;;;13.10;56.80;;;;;;10183012;27;20149;-59
2021/05/02 09:18:59;;;;;;;;;;;12.70;56.80;;;;;;10189349;27;20078;-57
2021/05/02 09:23:49;;;;;;;11.55;8.73;;;12.60;56.10;;;;;;10182198;27;19922;-58
2021/05/02 09:28:53;;;;;;;12.30;8.73;;;12.90;55.80;;;;;;10173615;28;20032;-57
2021/05/02 09:33:45;;;;;;;11.50;8.73;;;13.10;54.20;;;;;;10190036;28;20073;-55
2021/05/02 09:38:36;;;;;;;12.77;8.35;;;13.20;54.30;;;;;;10189564;28;20050;-55
2021/05/02 09:43:43;;;;;;;11.73;7.43;;;13.20;53.50;;;;;;10178702;28;20035;-58
2021/05/02 09:48:34;;;;;;;13.10;8.70;;;13.40;52.40;;;;;;10118120;28;21183;-57
2021/05/02 09:53:25;;;;;;;11.15;8.23;;;13.50;52.00;;;;;;10119083;28;20030;-58
2021/05/02 09:58:18;;;;;;;10.93;8.75;;;13.50;51.30;;;;;;10116250;28;20070;-55
2021/05/02 10:03:14;;;;;;;12.48;7.97;;;13.70;50.70;;;;;;10105348;28;20024;-55
2021/05/02 10:08:05;;;;;;;10.45;7.18;;;13.80;50.10;;;;;;10108593;28;20044;-56
2021/05/02 10:12:56;;;;;;;14.52;8.75;;;13.60;49.50;;;;;;10108864;28;20034;-55
2021/05/02 10:17:53;;;;;;;11.60;8.32;;;13.70;49.30;;;;;;10118149;28;20064;-55
2021/05/02 10:22:44;;;;;;;11.10;8.70;;;13.60;49.70;;;;;;10114369;28;20198;-58
2021/05/02 10:27:49;;;;;;;11.75;8.13;;;13.70;48.80;;;;;;10115644;28;20066;-56
2021/05/02 10:32:41;;;;;;;9.88;7.65;;;13.90;48.30;;;;;;10117652;28;20535;-58
2021/05/02 10:37:36;;;;;;;13.55;7.97;;;13.80;48.10;;;;;;10127043;28;20522;-57
2021/05/02 10:42:53;;;;;;;9.52;7.22;;;14.00;47.10;;;;;;10120342;28;20101;-56
2021/05/02 10:47:44;;;;;;;11.13;7.88;;;14.20;46.30;;;;;;10160705;27;20047;-57
2021/05/02 10:52:36;;;;;;;10.55;7.68;;;14.50;46.00;;;;;;10174944;27;20466;-55
2021/05/02 10:57:33;;;;;;;14.55;7.53;;;14.60;46.10;;;;;;10179245;27;20042;-54
2021/05/02 11:02:45;;;;;;;10.77;8.00;;;14.30;45.90;;;;;;10190622;27;20070;-56
2021/05/02 11:07:38;;;;;;;10.43;7.22;;;14.50;46.00;;;;;;10174765;27;20075;-55
2021/05/02 11:12:31;;;;;;;10.00;8.35;;;14.60;46.10;;;;;;10170093;27;20852;-58
2021/05/02 11:17:22;;;;;;;11.43;8.55;;;14.60;46.30;;;;;;10173062;27;20031;-59
2021/05/02 11:22:14;;;;;;;12.32;9.63;;;14.60;46.40;;;;;;10161640;27;20569;-55
2021/05/02 11:32:04;;;;;;;11.82;8.88;;;14.50;45.90;;;;;;10170058;27;20437;-57
2021/05/02 11:36:56;;;;;;;12.10;8.15;;;14.10;46.50;;;;;;10176229;27;20467;-57
2021/05/02 11:42:04;;;;;;;11.32;7.68;;;14.20;46.70;;;;;;10174155;27;20273;-55
2021/05/02 11:46:55;;;;;;;9.88;7.80;;;14.40;46.00;;;;;;10169568;27;20044;-57
2021/05/02 11:51:58;;;;;;;9.93;7.45;;;14.80;45.70;;;;;;10157579;27;20801;-57
2021/05/02 11:56:52;;;;;;;11.00;7.00;;;14.80;45.00;;;;;;10175705;27;20034;-58
2021/05/02 12:01:47;;;;;;;9.32;7.05;;;14.70;45.80;;;;;;10183884;27;20038;-59
2021/05/02 12:06:38;;;;;;;10.02;6.47;;;15.00;45.90;;;;;;10172295;27;20430;-61
2021/05/02 12:11:29;;;;;;;8.13;6.30;;;15.30;45.30;;;;;;10182970;27;20047;-58
2021/05/02 12:16:29;;;;;;;8.20;6.30;;;15.40;44.90;;;;;;10168676;27;20371;-58
2021/05/02 12:21:38;;;;;;;9.02;6.68;;;15.80;43.60;;;;;;10172047;27;20660;-58
2021/05/02 12:26:29;;;;;;;9.07;6.43;;;16.30;43.20;;;;;;10178628;27;20169;-60
2021/05/02 12:31:20;;;;;;;6.13;5.05;;;16.50;43.20;;;;;;10165778;27;20039;-56
2021/05/02 12:36:13;;;;;;;6.22;4.30;;;15.80;43.60;;;;;;10165250;27;20026;-51
2021/05/02 12:41:04;;;;;;;8.13;4.63;;;15.30;43.10;;;;;;10165475;27;20043;-63
2021/05/02 12:45:56;;;;;;;5.15;3.75;;;15.20;42.80;;;;;;10171426;27;20134;-59
2021/05/02 12:50:47;;;;;;;4.50;4.00;;;15.10;42.50;;;;;;10191866;27;21177;-62
2021/05/02 12:55:38;;;;;;;5.55;3.58;;;15.40;42.20;;;;;;10195141;27;20027;-67
2021/05/02 13:00:37;;;;;;;3.47;2.70;;;15.30;42.00;;;;;;10190658;27;20508;-66
2021/05/02 13:05:28;;;;;;;2.63;2.22;;;14.90;41.40;;;;;;10193080;27;20404;-64
2021/05/02 13:10:19;;;;;;;2.30;2.00;;;15.00;41.30;;;;;;10174053;27;20039;-65
2021/05/02 13:15:15;;;;;;;3.40;1.95;;;14.90;40.30;;;;;;10166624;27;20039;-66
2021/05/02 13:20:06;;;;;;;2.67;2.22;;;15.40;39.90;;;;;;10173809;27;20107;-67
2021/05/02 13:24:57;;;;;;;2.88;2.03;;;16.70;37.90;;;;;;10171067;28;20043;-65
2021/05/02 13:29:48;;;;;;;3.72;2.30;;;15.40;38.60;;;;;;10176478;28;20104;-65
2021/05/02 13:34:43;;;;;;;2.88;2.33;;;15.00;39.50;;;;;;10177913;28;20143;-65
2021/05/02 13:39:34;;;;;;;4.82;2.42;;;14.80;39.40;;;;;;10171916;28;21001;-64
2021/05/02 13:44:27;;;;;;;2.28;1.70;;;14.90;39.30;;;;;;10165650;28;20075;-65
2021/05/02 13:49:19;;;;;;;3.65;2.45;;;14.80;39.40;;;;;;10120511;28;20036;-66
2021/05/02 13:54:10;;;;;;;4.90;2.33;;;14.80;39.20;;;;;;10120560;28;20032;-65
2021/05/02 13:59:01;;;;;;;5.55;3.22;;;14.70;39.00;;;;;;10120768;28;20048;-65
2021/05/02 14:03:53;;;;;;;2.83;1.95;;;14.80;39.20;;;;;;10120832;28;20024;-64
2021/05/02 14:08:44;;;;;;;6.68;4.22;;;14.70;39.30;;;;;;10120045;28;20036;-68
2021/05/02 14:13:35;;;;;;;6.47;4.03;;;14.10;40.90;;;;;;10123826;28;20032;-66
2021/05/02 14:18:27;;;;;;;6.55;4.25;;;13.70;42.80;;;;;;10123377;28;20047;-66
2021/05/02 14:23:17;;;;;;;4.05;3.65;;;13.50;44.00;;;;;;10125781;28;20449;-64
2021/05/02 14:28:08;;;;;;;5.40;4.30;;;13.50;44.60;;;;;;10124601;28;20573;-65
2021/05/02 14:32:59;;;;;;;5.45;3.97;;;13.50;45.50;;;;;;10125307;28;20338;-65
2021/05/02 14:37:50;;;;;;;5.05;3.97;;;13.30;46.50;;;;;;10106511;28;20135;-65
2021/05/02 14:42:42;;;;;;;5.90;4.07;;;13.40;47.30;;;;;;10125353;28;20523;-67
2021/05/02 14:47:32;;;;;;;4.72;3.83;;;13.40;47.60;;;;;;10151637;27;20052;-65
2021/05/02 14:52:23;;;;;;;4.47;3.63;;;13.50;48.20;;;;;;10162175;27;20047;-66
2021/05/02 14:57:14;;;;;;;5.50;3.85;;;14.00;48.00;;;;;;10170668;27;20139;-65
2021/05/02 15:02:06;;;;;;;6.03;4.50;;;14.00;48.70;;;;;;10177609;27;20088;-64
2021/05/02 15:06:57;;;;;;;5.43;3.95;;;14.00;48.70;;;;;;10133825;27;20036;-65
2021/05/02 15:11:49;;;;;;;4.65;3.65;;;14.10;48.70;;;;;;10166938;27;21146;-65
2021/05/02 15:16:40;;;;;;;4.53;3.63;;;13.90;49.30;;;;;;10172003;27;20043;-69
2021/05/02 15:21:31;;;;;;;4.40;3.00;;;13.70;49.80;;;;;;10161275;28;20073;-68
2021/05/02 15:26:21;;;;;;;6.13;3.90;;;13.90;49.90;;;;;;10162202;27;20134;-73
2021/05/02 15:31:15;;;;;;;5.32;3.80;;;14.00;50.20;;;;;;10163163;27;20028;-71
2021/05/02 15:36:08;;;;;;;5.60;3.28;;;14.00;50.50;;;;;;10170620;27;20040;-74
2021/05/02 15:41:07;;;;;;;5.50;3.63;;;13.90;50.90;;;;;;10169807;27;20483;-69
2021/05/02 15:45:58;;;;;;;5.22;3.40;;;13.80;51.10;;;;;;10145045;27;20047;-70
2021/05/02 15:50:49;;;;;;;5.65;3.00;;;14.20;50.70;;;;;;10207377;27;20141;-72
2021/05/02 15:55:39;;;;;;;5.10;3.70;;;15.30;49.50;;;;;;10181700;27;20035;-74
2021/05/02 16:00:31;;;;;;;4.70;3.65;;;15.30;49.30;;;;;;10166577;27;20564;-73
2021/05/02 16:05:22;;;;;;;4.72;2.88;;;14.90;50.00;;;;;;10158932;27;20433;-68
2021/05/02 16:10:13;;;;;;;3.42;2.92;;;15.90;49.60;;;;;;10147962;27;20437;-74
2021/05/02 16:15:05;;;;;;;3.75;2.90;;;19.70;44.30;;;;;;10165741;27;20058;-70
2021/05/02 16:19:56;;;;;;;4.05;3.38;;;22.00;41.30;;;;;;10179648;27;20043;-72
2021/05/02 16:24:46;;;;;;;3.63;3.15;;;20.20;43.20;;;;;;10176532;27;20085;-69
2021/05/02 16:29:37;;;;;;;5.22;3.35;;;17.30;48.00;;;;;;10179547;27;20030;-71
2021/05/02 16:34:28;;;;;;;4.00;3.60;;;15.70;49.70;;;;;;10177981;27;20044;-71
2021/05/02 16:39:21;;;;;;;6.13;3.58;;;15.00;50.20;;;;;;10179724;27;20047;-71
2021/05/02 16:44:12;;;;;;;3.70;3.08;;;14.70;50.00;;;;;;10163807;27;20059;-69
2021/05/02 16:49:03;;;;;;;3.67;2.88;;;14.50;50.50;;;;;;10172884;27;20083;-70
2021/05/02 16:53:55;;;;;;;4.32;3.10;;;14.30;49.70;;;;;;10180449;27;20035;-68
2021/05/02 16:58:46;;;;;;;4.47;3.90;;;14.40;49.60;;;;;;10171982;27;20031;-67
2021/05/02 17:03:37;;;;;;;6.00;4.25;;;14.40;49.40;;;;;;10174534;27;20457;-66
2021/05/02 17:08:28;;;;;;;5.82;3.75;;;14.40;49.50;;;;;;10172263;27;20028;-68
2021/05/02 17:13:19;;;;;;;7.47;3.70;;;14.20;49.60;;;;;;10176595;27;21367;-65
2021/05/02 17:18:10;;;;;;;5.85;3.58;;;14.20;49.60;;;;;;10157932;27;20457;-66
2021/05/02 17:23:01;;;;;;;5.47;4.05;;;14.30;49.50;;;;;;10155955;27;20035;-69
2021/05/02 17:27:52;;;;;;;4.97;3.47;;;13.90;50.30;;;;;;10171372;28;20065;-66
2021/05/02 17:32:43;;;;;;;3.78;3.05;;;14.50;49.20;;;;;;10162196;28;20042;-69
2021/05/02 17:37:34;;;;;;;5.38;4.05;;;14.70;48.90;;;;;;10142740;28;20043;-66
2021/05/02 17:42:24;;;;;;;6.03;3.83;;;14.30;49.80;;;;;;10167907;28;20039;-66
2021/05/02 17:47:15;;;;;;;4.40;3.00;;;14.10;50.10;;;;;;10174857;27;20854;-67
2021/05/02 17:52:08;;;;;;;4.65;3.33;;;13.90;50.40;;;;;;10176310;27;20012;-67
2021/05/02 17:56:59;;;;;;;5.75;3.03;;;13.60;50.70;;;;;;10178676;27;20035;-66
2021/05/02 18:01:50;;;;;;;4.10;3.40;;;13.40;51.20;;;;;;10158399;27;20071;-66
2021/05/02 18:06:41;;;;;;;5.18;3.50;;;13.20;51.60;;;;;;10173442;27;20050;-66
2021/05/02 18:11:33;;;;;;;6.25;3.17;;;12.80;51.90;;;;;;10174199;27;20493;-62
2021/05/02 18:16:24;;;;;;;5.20;3.88;;;12.80;52.80;;;;;;10184808;27;20039;-75
2021/05/02 18:21:15;;;;;;;5.10;3.45;;;12.90;52.30;;;;;;10185272;27;20058;-70
2021/05/02 18:26:06;;;;;;;3.78;3.20;;;12.70;52.80;;;;;;10177002;27;20032;-71
2021/05/02 18:30:57;;;;;;;5.55;3.50;;;12.60;53.10;;;;;;10179258;27;20035;-69
2021/05/02 18:35:47;;;;;;;5.85;3.80;;;12.50;53.30;;;;;;10183455;27;20509;-74
2021/05/02 18:40:38;;;;;;;6.25;4.22;;;12.40;53.80;;;;;;10192833;27;20138;-64
2021/05/02 18:45:29;;;;;;;8.98;4.05;;;12.20;54.30;;;;;;10183576;27;20143;-62
2021/05/02 18:50:20;;;;;;;6.85;4.28;;;12.10;54.80;;;;;;10176479;27;20065;-63
2021/05/02 18:55:11;;;;;;;6.03;3.97;;;12.10;54.90;;;;;;10177482;27;20240;-62
2021/05/02 19:00:04;;;;;;;6.03;3.97;;;12.10;55.00;;;;;;10179553;27;20101;-63
2021/05/02 19:04:55;;;;;;;7.10;3.70;;;12.00;55.60;;;;;;10181846;27;20485;-62
2021/05/02 19:09:46;;;;;;;7.75;4.20;;;12.00;56.00;;;;;;10182266;27;20088;-63
2021/05/02 19:14:37;;;;;;;6.82;4.68;;;11.90;56.20;;;;;;10181278;27;20031;-64
2021/05/02 19:19:27;;;;;;;6.93;4.32;;;11.80;56.50;;;;;;10181457;27;20131;-64
2021/05/02 19:24:18;;;;;;;6.10;4.65;;;11.80;56.90;;;;;;10177228;27;20042;-64
2021/05/02 19:29:09;;;;;;;5.78;4.68;;;11.70;57.20;;;;;;10179583;27;20432;-63
2021/05/02 19:34:00;;;;;;;7.40;4.45;;;11.60;57.60;;;;;;10181461;27;20031;-61
2021/05/02 19:38:51;;;;;;;8.30;4.53;;;11.60;57.90;;;;;;10179500;27;20050;-63
2021/05/02 19:43:42;;;;;;;5.70;4.63;;;11.50;58.10;;;;;;10178167;27;20036;-62
2021/05/02 19:48:33;;;;;;;7.63;4.50;;;11.50;58.10;;;;;;10169731;27;20075;-64
2021/05/02 19:53:23;;;;;;;5.97;3.65;;;11.40;58.40;;;;;;10179024;27;20065;-64
2021/05/02 19:58:15;;;;;;;5.82;3.75;;;11.30;58.70;;;;;;10181598;27;20413;-63
2021/05/02 20:03:06;;;;;;;5.78;4.45;;;11.20;59.20;;;;;;10170559;27;20036;-64
2021/05/02 20:07:57;;;;;;;6.63;4.55;;;11.20;59.20;;;;;;10177856;27;20023;-63
2021/05/02 20:12:48;;;;;;;6.30;4.30;;;11.20;59.40;;;;;;10177301;27;20035;-64
2021/05/02 20:17:40;;;;;;;4.22;3.45;;;11.10;59.90;;;;;;10182184;27;20035;-64
2021/05/02 20:22:31;;;;;;;9.30;5.47;;;11.00;60.00;;;;;;10171366;27;20565;-65
2021/05/02 20:27:22;;;;;;;5.03;4.03;;;10.90;60.50;;;;;;10172145;27;20119;-64
2021/05/02 20:32:12;;;;;;;6.63;4.40;;;10.80;60.60;;;;;;10178553;27;20031;-62
2021/05/02 20:37:04;;;;;;;6.63;4.03;;;10.80;60.90;;;;;;10182847;27;20031;-63
2021/05/02 20:41:55;;;;;;;7.82;4.32;;;10.80;61.10;;;;;;10170847;27;20577;-62
2021/05/02 20:46:46;;;;;;;6.50;4.93;;;10.60;61.40;;;;;;10175144;27;20116;-64
2021/05/02 20:51:38;;;;;;;5.72;4.25;;;10.50;61.90;;;;;;10182111;27;20036;-63
2021/05/02 20:56:29;;;;;;;7.70;4.68;;;10.40;62.30;;;;;;10181337;27;20828;-63
2021/05/02 21:01:19;;;;;;;6.47;4.25;;;10.50;62.20;;;;;;10164168;27;21694;-61
2021/05/02 21:06:11;;;;;;;6.18;4.13;;;10.40;62.30;;;;;;10179842;27;20669;-61
2021/05/02 21:11:03;;;;;;;9.00;5.55;;;10.20;63.10;;;;;;10178271;27;20176;-62
2021/05/02 21:15:54;;;;;;;8.13;5.55;;;10.30;62.90;;;;;;10174800;27;20394;-62
2021/05/02 21:20:45;;;;;;;6.43;4.80;;;10.30;63.00;;;;;;10174320;27;20399;-62
2021/05/02 21:25:35;;;;;;;7.18;4.38;;;10.30;63.10;;;;;;10185190;27;20134;-63
2021/05/02 21:30:26;;;;;;;6.57;3.97;;;10.20;63.30;;;;;;10177380;28;20536;-61
2021/05/02 21:35:17;;;;;;;7.65;4.95;;;10.10;63.70;;;;;;10178862;28;20066;-62
2021/05/02 21:40:09;;;;;;;10.80;5.30;;;10.10;63.70;;;;;;10184678;28;20114;-63
2021/05/02 21:45:00;;;;;;;4.78;3.92;;;10.00;64.00;;;;;;10177358;28;20057;-62
2021/05/02 21:49:56;;;;;;;8.25;5.00;;;10.10;64.20;;;;;;10177800;28;20023;-62
2021/05/02 21:54:47;;;;;;;5.63;4.78;;;10.20;64.20;;;;;;10176680;28;20036;-61
2021/05/02 21:59:37;;;;;;;6.22;4.60;;;10.10;64.30;;;;;;10172480;28;20064;-64
2021/05/02 22:04:29;;;;;;;6.63;4.70;;;10.20;64.60;;;;;;10171609;28;20283;-62
2021/05/02 22:09:19;;;;;;;6.95;4.60;;;10.20;64.70;;;;;;10170738;28;21074;-62
2021/05/02 22:14:10;;;;;;;7.45;4.53;;;10.20;64.60;;;;;;10181233;28;20030;-62
2021/05/02 22:19:02;;;;;;;7.20;4.75;;;10.20;64.80;;;;;;10179289;28;20132;-64
2021/05/02 22:23:53;;;;;;;6.45;4.53;;;10.10;64.90;;;;;;10155149;28;20176;-63
2021/05/02 22:28:45;;;;;;;7.05;4.20;;;10.00;65.20;;;;;;10181257;28;20106;-61
2021/05/02 22:33:37;;;;;;;7.57;4.43;;;10.00;65.40;;;;;;10180054;27;20405;-63
2021/05/02 22:38:28;;;;;;;5.65;3.95;;;9.90;65.40;;;;;;10181779;27;20044;-63
2021/05/02 22:43:19;;;;;;;6.43;4.80;;;9.80;65.60;;;;;;10179232;27;20027;-63
2021/05/02 22:48:10;;;;;;;8.55;4.95;;;9.70;66.00;;;;;;10184541;27;20127;-63
2021/05/02 22:53:02;;;;;;;7.82;5.25;;;9.60;65.90;;;;;;10184026;27;20030;-63
2021/05/02 22:57:54;;;;;;;6.88;4.85;;;9.50;65.90;;;;;;10181351;27;20478;-63
2021/05/02 23:02:44;;;;;;;7.80;4.82;;;9.60;65.80;;;;;;10178168;27;20130;-62
2021/05/02 23:07:35;;;;;;;6.10;4.57;;;9.50;66.30;;;;;;10175277;27;20043;-63
2021/05/02 23:12:29;;;;;;;8.82;4.43;;;9.50;66.20;;;;;;10180421;27;20039;-64
2021/05/02 23:17:21;;;;;;;9.05;5.25;;;9.30;66.60;;;;;;10181087;27;20177;-63
2021/05/02 23:22:12;;;;;;;7.72;5.13;;;9.30;66.60;;;;;;10185414;27;20039;-63
2021/05/02 23:27:04;;;;;;;8.88;5.18;;;9.20;67.30;;;;;;10183532;27;20119;-63
2021/05/02 23:31:55;;;;;;;8.27;5.65;;;9.20;67.10;;;;;;10182042;27;20140;-63
2021/05/02 23:36:46;;;;;;;7.18;5.50;;;9.10;67.20;;;;;;10180128;27;20024;-64
2021/05/02 23:41:37;;;;;;;6.43;4.60;;;9.00;67.60;;;;;;10184338;27;20039;-63
2021/05/02 23:46:28;;;;;;;7.72;4.75;;;8.90;67.90;;;;;;10168486;27;20771;-62
2021/05/02 23:51:18;;;;;;;7.57;4.47;;;8.90;68.20;;;;;;10175507;27;20028;-63
2021/05/02 23:56:09;;;;;;;6.05;4.20;;;8.80;68.20;;;;;;10166112;27;20036;-64
